sensor_id;sensor_type;location;lat;lon;timestamp;pressure;altitude;pressure_sealevel;temperature;humidity
10462;BME280;5278;42.656;23.374;2022-12-18T00:01:58;95352.53;;;8.84;100.00
10462;BME280;5278;42.656;23.374;2022-12-18T00:04:27;95365.34;;;8.86;100.00
10462;BME280;5278;42.656;23.374;2022-12-18T00:06:55;95383.09;;;8.81;99.73
10462;BME280;5278;42.656;23.374;2022-12-18T00:09:22;95368.69;;;8.69;99.93
10462;BME280;5278;42.656;23.374;2022-12-18T00:11:49;95378.25;;;8.68;99.91
10462;BME280;5278;42.656;23.374;2022-12-18T00:14:16;95381.13;;;8.65;99.65
10462;BME280;5278;42.656;23.374;2022-12-18T00:16:46;95379.09;;;8.59;99.76
10462;BME280;5278;42.656;23.374;2022-12-18T00:19:13;95391.66;;;8.54;99.64
10462;BME280;5278;42.656;23.374;2022-12-18T00:21:41;95386.81;;;8.41;99.77
10462;BME280;5278;42.656;23.374;2022-12-18T00:24:09;95390.59;;;8.47;100.00
10462;BME280;5278;42.656;23.374;2022-12-18T00:26:37;95406.84;;;8.39;100.00
10462;BME280;5278;42.656;23.374;2022-12-18T00:29:06;95400.59;;;8.42;100.00
10462;BME280;5278;42.656;23.374;2022-12-18T00:31:34;95405.38;;;8.37;100.00
10462;BME280;5278;42.656;23.374;2022-12-18T00:34:01;95405.78;;;8.32;99.97
10462;BME280;5278;42.656;23.374;2022-12-18T00:36:31;95407.28;;;8.25;100.00
10462;BME280;5278;42.656;23.374;2022-12-18T00:39:02;95405.66;;;8.14;100.00
10462;BME280;5278;42.656;23.374;2022-12-18T00:41:29;95410.03;;;8.14;100.00
10462;BME280;5278;42.656;23.374;2022-12-18T00:44:15;95398.09;;;7.94;100.00
10462;BME280;5278;42.656;23.374;2022-12-18T00:46:43;95386.00;;;7.85;100.00
10462;BME280;5278;42.656;23.374;2022-12-18T00:49:10;95409.22;;;8.04;100.00
10462;BME280;5278;42.656;23.374;2022-12-18T00:51:37;95422.16;;;8.04;100.00
10462;BME280;5278;42.656;23.374;2022-12-18T00:54:07;95421.78;;;7.99;100.00
10462;BME280;5278;42.656;23.374;2022-12-18T00:56:35;95432.66;;;7.93;100.00
10462;BME280;5278;42.656;23.374;2022-12-18T00:59:03;95429.00;;;7.86;100.00
10462;BME280;5278;42.656;23.374;2022-12-18T01:01:30;95426.44;;;7.86;100.00
10462;BME280;5278;42.656;23.374;2022-12-18T01:03:59;95427.38;;;7.85;100.00
10462;BME280;5278;42.656;23.374;2022-12-18T01:06:27;95430.06;;;7.93;100.00
10462;BME280;5278;42.656;23.374;2022-12-18T01:08:54;95432.00;;;8.00;100.00
10462;BME280;5278;42.656;23.374;2022-12-18T01:11:23;95439.34;;;8.05;99.57
10462;BME280;5278;42.656;23.374;2022-12-18T01:13:52;95440.28;;;8.04;99.21
10462;BME280;5278;42.656;23.374;2022-12-18T01:16:22;95433.75;;;8.00;99.00
10462;BME280;5278;42.656;23.374;2022-12-18T01:18:52;95444.22;;;7.98;98.79
10462;BME280;5278;42.656;23.374;2022-12-18T01:21:19;95437.84;;;7.93;98.60
10462;BME280;5278;42.656;23.374;2022-12-18T01:23:51;95437.03;;;7.92;98.67
10462;BME280;5278;42.656;23.374;2022-12-18T01:26:20;95441.94;;;7.86;98.45
10462;BME280;5278;42.656;23.374;2022-12-18T01:28:49;95440.03;;;7.68;98.04
10462;BME280;5278;42.656;23.374;2022-12-18T01:31:18;95453.66;;;7.61;98.52
10462;BME280;5278;42.656;23.374;2022-12-18T01:33:46;95447.38;;;7.54;98.60
10462;BME280;5278;42.656;23.374;2022-12-18T01:36:18;95449.03;;;7.55;98.41
10462;BME280;5278;42.656;23.374;2022-12-18T01:38:45;95415.94;;;7.29;99.00
10462;BME280;5278;42.656;23.374;2022-12-18T01:41:13;95455.66;;;7.48;99.06
10462;BME280;5278;42.656;23.374;2022-12-18T01:43:50;95447.09;;;7.47;98.90
10462;BME280;5278;42.656;23.374;2022-12-18T01:46:20;95461.00;;;7.46;98.86
10462;BME280;5278;42.656;23.374;2022-12-18T01:48:50;95464.13;;;7.40;99.10
10462;BME280;5278;42.656;23.374;2022-12-18T01:51:17;95459.88;;;7.39;99.67
10462;BME280;5278;42.656;23.374;2022-12-18T01:53:46;95458.25;;;7.38;99.55
10462;BME280;5278;42.656;23.374;2022-12-18T01:56:15;95421.22;;;7.09;99.63
10462;BME280;5278;42.656;23.374;2022-12-18T01:58:50;95463.56;;;7.27;99.23
10462;BME280;5278;42.656;23.374;2022-12-18T02:01:20;95472.34;;;7.15;99.46
10462;BME280;5278;42.656;23.374;2022-12-18T02:03:47;95469.34;;;7.10;100.00
10462;BME280;5278;42.656;23.374;2022-12-18T02:06:16;95460.75;;;7.00;100.00
10462;BME280;5278;42.656;23.374;2022-12-18T02:08:59;95472.88;;;7.09;100.00
10462;BME280;5278;42.656;23.374;2022-12-18T02:11:38;95487.16;;;7.13;99.65
10462;BME280;5278;42.656;23.374;2022-12-18T02:14:17;95480.22;;;7.04;99.81
10462;BME280;5278;42.656;23.374;2022-12-18T02:16:48;95488.47;;;6.98;100.00
10462;BME280;5278;42.656;23.374;2022-12-18T02:19:33;95499.00;;;7.06;100.00
10462;BME280;5278;42.656;23.374;2022-12-18T02:22:11;95490.31;;;7.16;99.99
10462;BME280;5278;42.656;23.374;2022-12-18T02:24:54;95492.34;;;7.13;99.68
10462;BME280;5278;42.656;23.374;2022-12-18T02:27:27;95500.66;;;7.16;99.63
10462;BME280;5278;42.656;23.374;2022-12-18T02:29:57;95491.16;;;7.17;99.66
10462;BME280;5278;42.656;23.374;2022-12-18T02:32:29;95511.53;;;7.20;99.40
10462;BME280;5278;42.656;23.374;2022-12-18T02:34:58;95501.75;;;7.23;98.90
10462;BME280;5278;42.656;23.374;2022-12-18T02:37:27;95504.06;;;7.17;98.86
10462;BME280;5278;42.656;23.374;2022-12-18T02:39:56;95502.00;;;7.11;99.67
10462;BME280;5278;42.656;23.374;2022-12-18T02:42:24;95514.22;;;7.09;99.26
10462;BME280;5278;42.656;23.374;2022-12-18T02:44:55;95502.25;;;7.08;99.21
10462;BME280;5278;42.656;23.374;2022-12-18T02:47:28;95502.25;;;7.08;99.21
10462;BME280;5278;42.656;23.374;2022-12-18T02:50:02;95527.28;;;7.07;99.14
10462;BME280;5278;42.656;23.374;2022-12-18T02:52:36;95508.19;;;6.99;98.60
10462;BME280;5278;42.656;23.374;2022-12-18T02:55:24;95506.25;;;6.81;99.53
10462;BME280;5278;42.656;23.374;2022-12-18T02:57:58;95509.78;;;6.80;99.60
10462;BME280;5278;42.656;23.374;2022-12-18T03:00:36;95511.91;;;6.75;100.00
10462;BME280;5278;42.656;23.374;2022-12-18T03:03:07;95511.06;;;6.65;100.00
10462;BME280;5278;42.656;23.374;2022-12-18T03:05:41;95510.63;;;6.60;100.00
10462;BME280;5278;42.656;23.374;2022-12-18T03:08:14;95522.72;;;6.60;100.00
10462;BME280;5278;42.656;23.374;2022-12-18T03:10:48;95532.16;;;6.49;100.00
10462;BME280;5278;42.656;23.374;2022-12-18T03:13:20;95538.84;;;6.52;100.00
10462;BME280;5278;42.656;23.374;2022-12-18T03:15:53;95545.50;;;6.55;100.00
10462;BME280;5278;42.656;23.374;2022-12-18T03:18:26;95536.69;;;6.57;100.00
10462;BME280;5278;42.656;23.374;2022-12-18T03:20:59;95535.63;;;6.60;100.00
10462;BME280;5278;42.656;23.374;2022-12-18T03:23:35;95542.31;;;6.62;100.00
10462;BME280;5278;42.656;23.374;2022-12-18T03:26:07;95538.50;;;6.66;100.00
10462;BME280;5278;42.656;23.374;2022-12-18T03:28:36;95542.34;;;6.72;100.00
10462;BME280;5278;42.656;23.374;2022-12-18T03:31:09;95552.09;;;6.68;99.56
10462;BME280;5278;42.656;23.374;2022-12-18T03:33:41;95553.38;;;6.53;99.72
10462;BME280;5278;42.656;23.374;2022-12-18T03:36:10;95547.66;;;6.49;100.00
10462;BME280;5278;42.656;23.374;2022-12-18T03:38:38;95568.41;;;6.48;100.00
10462;BME280;5278;42.656;23.374;2022-12-18T03:41:14;95564.34;;;6.45;100.00
10462;BME280;5278;42.656;23.374;2022-12-18T03:43:49;95566.09;;;6.45;100.00
10462;BME280;5278;42.656;23.374;2022-12-18T03:46:26;95568.41;;;6.48;99.57
10462;BME280;5278;42.656;23.374;2022-12-18T03:49:00;95573.34;;;6.51;98.93
10462;BME280;5278;42.656;23.374;2022-12-18T03:51:37;95585.53;;;6.49;99.17
10462;BME280;5278;42.656;23.374;2022-12-18T03:54:09;95590.69;;;6.49;98.67
10462;BME280;5278;42.656;23.374;2022-12-18T03:56:42;95597.63;;;6.48;98.06
10462;BME280;5278;42.656;23.374;2022-12-18T03:59:12;95577.69;;;6.51;97.97
10462;BME280;5278;42.656;23.374;2022-12-18T04:01:45;95590.38;;;6.63;97.58
10462;BME280;5278;42.656;23.374;2022-12-18T04:04:14;95578.28;;;6.64;97.52
10462;BME280;5278;42.656;23.374;2022-12-18T04:06:43;95588.00;;;6.71;96.80
10462;BME280;5278;42.656;23.374;2022-12-18T04:09:12;95586.03;;;6.64;96.87
10462;BME280;5278;42.656;23.374;2022-12-18T04:11:40;95597.56;;;6.60;97.33
10462;BME280;5278;42.656;23.374;2022-12-18T04:14:09;95592.97;;;6.63;97.34
10462;BME280;5278;42.656;23.374;2022-12-18T04:16:38;95601.41;;;6.65;96.95
10462;BME280;5278;42.656;23.374;2022-12-18T04:19:08;95598.84;;;6.65;96.90
10462;BME280;5278;42.656;23.374;2022-12-18T04:21:35;95599.22;;;6.61;96.52
10462;BME280;5278;42.656;23.374;2022-12-18T04:24:02;95588.94;;;6.49;96.85
10462;BME280;5278;42.656;23.374;2022-12-18T04:26:30;95618.88;;;6.52;96.78
10462;BME280;5278;42.656;23.374;2022-12-18T04:28:57;95619.09;;;6.49;95.78
10462;BME280;5278;42.656;23.374;2022-12-18T04:31:24;95609.06;;;6.35;96.14
10462;BME280;5278;42.656;23.374;2022-12-18T04:33:51;95609.00;;;6.25;96.26
10462;BME280;5278;42.656;23.374;2022-12-18T04:36:19;95627.50;;;6.30;96.64
10462;BME280;5278;42.656;23.374;2022-12-18T04:38:46;95632.22;;;6.25;96.56
10462;BME280;5278;42.656;23.374;2022-12-18T04:41:13;95625.91;;;6.18;96.10
10462;BME280;5278;42.656;23.374;2022-12-18T04:43:40;95645.22;;;6.24;96.41
10462;BME280;5278;42.656;23.374;2022-12-18T04:46:07;95642.44;;;6.27;95.81
10462;BME280;5278;42.656;23.374;2022-12-18T04:48:35;95646.50;;;6.29;95.77
10462;BME280;5278;42.656;23.374;2022-12-18T04:51:02;95650.72;;;6.30;95.37
10462;BME280;5278;42.656;23.374;2022-12-18T04:53:32;95654.69;;;6.34;95.60
10462;BME280;5278;42.656;23.374;2022-12-18T04:56:04;95659.38;;;6.40;94.92
10462;BME280;5278;42.656;23.374;2022-12-18T04:58:32;95649.16;;;6.39;94.54
10462;BME280;5278;42.656;23.374;2022-12-18T05:01:00;95660.19;;;6.41;92.83
10462;BME280;5278;42.656;23.374;2022-12-18T05:03:27;95664.66;;;6.39;91.89
10462;BME280;5278;42.656;23.374;2022-12-18T05:05:54;95670.91;;;6.36;91.89
10462;BME280;5278;42.656;23.374;2022-12-18T05:08:21;95668.69;;;6.32;91.78
10462;BME280;5278;42.656;23.374;2022-12-18T05:10:49;95675.72;;;6.30;91.38
10462;BME280;5278;42.656;23.374;2022-12-18T05:13:16;95670.34;;;6.22;91.69
10462;BME280;5278;42.656;23.374;2022-12-18T05:15:51;95686.31;;;6.16;91.71
10462;BME280;5278;42.656;23.374;2022-12-18T05:18:18;95690.75;;;6.14;92.42
10462;BME280;5278;42.656;23.374;2022-12-18T05:20:45;95693.13;;;6.17;92.50
10462;BME280;5278;42.656;23.374;2022-12-18T05:23:11;95695.34;;;6.21;92.21
10462;BME280;5278;42.656;23.374;2022-12-18T05:25:39;95706.47;;;6.22;92.12
10462;BME280;5278;42.656;23.374;2022-12-18T05:28:07;95695.00;;;6.03;92.03
10462;BME280;5278;42.656;23.374;2022-12-18T05:30:34;95708.59;;;6.05;92.37
10462;BME280;5278;42.656;23.374;2022-12-18T05:33:01;95706.38;;;6.01;92.36
10462;BME280;5278;42.656;23.374;2022-12-18T05:35:28;95703.69;;;6.02;92.46
10462;BME280;5278;42.656;23.374;2022-12-18T05:37:55;95706.03;;;5.94;91.81
10462;BME280;5278;42.656;23.374;2022-12-18T05:40:22;95709.34;;;5.96;92.27
10462;BME280;5278;42.656;23.374;2022-12-18T05:42:49;95703.25;;;5.97;92.46
10462;BME280;5278;42.656;23.374;2022-12-18T05:45:18;95711.19;;;5.94;92.08
10462;BME280;5278;42.656;23.374;2022-12-18T05:47:45;95706.97;;;5.93;92.01
10462;BME280;5278;42.656;23.374;2022-12-18T05:50:12;95624.75;;;5.35;91.86
10462;BME280;5278;42.656;23.374;2022-12-18T05:52:39;95724.44;;;5.90;92.24
10462;BME280;5278;42.656;23.374;2022-12-18T05:55:07;95708.88;;;5.91;91.61
10462;BME280;5278;42.656;23.374;2022-12-18T05:57:34;95723.88;;;5.97;91.46
10462;BME280;5278;42.656;23.374;2022-12-18T06:00:02;95726.00;;;5.92;90.92
10462;BME280;5278;42.656;23.374;2022-12-18T06:02:31;95730.88;;;5.84;90.70
10462;BME280;5278;42.656;23.374;2022-12-18T06:04:57;95739.56;;;5.72;91.01
10462;BME280;5278;42.656;23.374;2022-12-18T06:07:26;95739.91;;;5.68;91.19
10462;BME280;5278;42.656;23.374;2022-12-18T06:09:52;95734.16;;;5.64;91.61
10462;BME280;5278;42.656;23.374;2022-12-18T06:12:19;95737.31;;;5.56;91.82
10462;BME280;5278;42.656;23.374;2022-12-18T06:14:47;95741.06;;;5.52;92.24
10462;BME280;5278;42.656;23.374;2022-12-18T06:17:15;95733.00;;;5.57;92.32
10462;BME280;5278;42.656;23.374;2022-12-18T06:19:44;95730.41;;;5.57;91.73
10462;BME280;5278;42.656;23.374;2022-12-18T06:22:12;95738.97;;;5.57;92.15
10462;BME280;5278;42.656;23.374;2022-12-18T06:24:39;95743.50;;;5.54;92.23
10462;BME280;5278;42.656;23.374;2022-12-18T06:27:06;95757.47;;;5.62;91.68
10462;BME280;5278;42.656;23.374;2022-12-18T06:29:33;95743.03;;;5.49;92.14
10462;BME280;5278;42.656;23.374;2022-12-18T06:31:59;95756.19;;;5.57;92.16
10462;BME280;5278;42.656;23.374;2022-12-18T06:34:26;95766.72;;;5.65;91.82
10462;BME280;5278;42.656;23.374;2022-12-18T06:36:54;95772.94;;;5.62;91.96
10462;BME280;5278;42.656;23.374;2022-12-18T06:39:21;95771.63;;;5.68;91.94
10462;BME280;5278;42.656;23.374;2022-12-18T06:41:48;95778.81;;;5.76;91.56
10462;BME280;5278;42.656;23.374;2022-12-18T06:44:16;95781.63;;;5.73;91.07
10462;BME280;5278;42.656;23.374;2022-12-18T06:46:43;95787.84;;;5.81;91.33
10462;BME280;5278;42.656;23.374;2022-12-18T06:49:10;95779.16;;;5.82;90.81
10462;BME280;5278;42.656;23.374;2022-12-18T06:51:37;95784.69;;;5.89;90.10
10462;BME280;5278;42.656;23.374;2022-12-18T06:54:06;95770.47;;;5.83;90.31
10462;BME280;5278;42.656;23.374;2022-12-18T06:56:33;95791.09;;;5.83;89.74
10462;BME280;5278;42.656;23.374;2022-12-18T06:59:00;95780.78;;;5.83;89.36
10462;BME280;5278;42.656;23.374;2022-12-18T07:01:27;95792.69;;;5.97;88.82
10462;BME280;5278;42.656;23.374;2022-12-18T07:03:55;95793.25;;;6.00;88.32
10462;BME280;5278;42.656;23.374;2022-12-18T07:06:24;95807.09;;;6.11;87.68
10462;BME280;5278;42.656;23.374;2022-12-18T07:08:54;95803.59;;;6.12;87.60
10462;BME280;5278;42.656;23.374;2022-12-18T07:11:22;95806.63;;;6.17;86.42
10462;BME280;5278;42.656;23.374;2022-12-18T07:13:52;95800.53;;;6.07;85.84
10462;BME280;5278;42.656;23.374;2022-12-18T07:16:20;95802.50;;;6.03;86.61
10462;BME280;5278;42.656;23.374;2022-12-18T07:18:47;95809.31;;;6.15;86.68
10462;BME280;5278;42.656;23.374;2022-12-18T07:21:16;95797.81;;;6.19;86.03
10462;BME280;5278;42.656;23.374;2022-12-18T07:23:45;95806.88;;;6.02;86.76
10462;BME280;5278;42.656;23.374;2022-12-18T07:26:14;95813.66;;;6.03;87.19
10462;BME280;5278;42.656;23.374;2022-12-18T07:28:43;95806.88;;;6.02;87.39
10462;BME280;5278;42.656;23.374;2022-12-18T07:31:12;95814.81;;;6.11;87.08
10462;BME280;5278;42.656;23.374;2022-12-18T07:33:41;95811.91;;;6.26;87.06
10462;BME280;5278;42.656;23.374;2022-12-18T07:36:09;95822.56;;;6.22;86.29
10462;BME280;5278;42.656;23.374;2022-12-18T07:38:37;95833.94;;;6.19;86.23
10462;BME280;5278;42.656;23.374;2022-12-18T07:41:05;95822.47;;;6.12;86.95
10462;BME280;5278;42.656;23.374;2022-12-18T07:43:32;95822.56;;;6.22;85.98
10462;BME280;5278;42.656;23.374;2022-12-18T07:46:02;95826.19;;;6.19;85.74
10462;BME280;5278;42.656;23.374;2022-12-18T07:48:29;95831.25;;;6.21;85.96
10462;BME280;5278;42.656;23.374;2022-12-18T07:50:58;95828.66;;;6.21;85.91
10462;BME280;5278;42.656;23.374;2022-12-18T07:53:25;95834.75;;;6.31;85.74
10462;BME280;5278;42.656;23.374;2022-12-18T07:55:55;95784.59;;;6.01;85.01
10462;BME280;5278;42.656;23.374;2022-12-18T07:58:22;95821.50;;;6.24;85.20
10462;BME280;5278;42.656;23.374;2022-12-18T08:00:51;95846.59;;;6.33;84.64
10462;BME280;5278;42.656;23.374;2022-12-18T08:03:20;95854.69;;;6.29;84.70
10462;BME280;5278;42.656;23.374;2022-12-18T08:05:47;95854.34;;;6.33;85.31
10462;BME280;5278;42.656;23.374;2022-12-18T08:08:14;95861.50;;;6.41;84.90
10462;BME280;5278;42.656;23.374;2022-12-18T08:10:41;95859.28;;;6.36;84.69
10462;BME280;5278;42.656;23.374;2022-12-18T08:13:08;95863.84;;;6.22;84.98
10462;BME280;5278;42.656;23.374;2022-12-18T08:15:35;95876.97;;;6.19;85.40
10462;BME280;5278;42.656;23.374;2022-12-18T08:18:04;95886.47;;;6.18;85.56
10462;BME280;5278;42.656;23.374;2022-12-18T08:20:32;95878.72;;;6.18;85.81
10462;BME280;5278;42.656;23.374;2022-12-18T08:22:59;95877.31;;;6.14;85.83
10462;BME280;5278;42.656;23.374;2022-12-18T08:25:26;95896.44;;;6.12;85.75
10462;BME280;5278;42.656;23.374;2022-12-18T08:27:55;95894.06;;;6.09;85.91
10462;BME280;5278;42.656;23.374;2022-12-18T08:30:23;95898.88;;;6.13;85.10
10462;BME280;5278;42.656;23.374;2022-12-18T08:32:51;95906.28;;;6.07;84.83
10462;BME280;5278;42.656;23.374;2022-12-18T08:35:19;95910.03;;;6.02;85.18
10462;BME280;5278;42.656;23.374;2022-12-18T08:37:47;95903.09;;;6.03;85.61
10462;BME280;5278;42.656;23.374;2022-12-18T08:40:14;95903.81;;;6.05;85.71
10462;BME280;5278;42.656;23.374;2022-12-18T08:42:41;95903.47;;;6.10;85.10
10462;BME280;5278;42.656;23.374;2022-12-18T08:45:25;95903.50;;;6.21;84.35
10462;BME280;5278;42.656;23.374;2022-12-18T08:47:53;95906.91;;;6.32;83.75
10462;BME280;5278;42.656;23.374;2022-12-18T08:50:20;95913.69;;;6.33;82.82
10462;BME280;5278;42.656;23.374;2022-12-18T08:52:49;95916.97;;;6.35;82.94
10462;BME280;5278;42.656;23.374;2022-12-18T08:55:15;95882.38;;;6.16;82.74
10462;BME280;5278;42.656;23.374;2022-12-18T08:57:43;95908.66;;;6.32;82.37
10462;BME280;5278;42.656;23.374;2022-12-18T09:00:11;95905.25;;;6.31;82.84
10462;BME280;5278;42.656;23.374;2022-12-18T09:02:38;95900.78;;;6.33;82.30
10462;BME280;5278;42.656;23.374;2022-12-18T09:05:05;95903.16;;;6.36;81.88
10462;BME280;5278;42.656;23.374;2022-12-18T09:07:34;95903.25;;;6.46;80.69
10462;BME280;5278;42.656;23.374;2022-12-18T09:10:03;95888.59;;;6.24;80.40
10462;BME280;5278;42.656;23.374;2022-12-18T09:12:31;95851.53;;;5.92;80.43
10462;BME280;5278;42.656;23.374;2022-12-18T09:14:57;95894.00;;;6.21;80.44
10462;BME280;5278;42.656;23.374;2022-12-18T09:17:24;95907.56;;;6.23;80.43
10462;BME280;5278;42.656;23.374;2022-12-18T09:19:51;95896.69;;;6.20;80.81
10462;BME280;5278;42.656;23.374;2022-12-18T09:22:18;95900.91;;;6.21;80.97
10462;BME280;5278;42.656;23.374;2022-12-18T09:24:45;95791.53;;;5.55;80.89
10462;BME280;5278;42.656;23.374;2022-12-18T09:27:14;95905.72;;;6.25;80.67
10462;BME280;5278;42.656;23.374;2022-12-18T09:29:41;95908.16;;;6.38;80.45
10462;BME280;5278;42.656;23.374;2022-12-18T09:32:08;95908.06;;;6.51;80.39
10462;BME280;5278;42.656;23.374;2022-12-18T09:34:35;95901.94;;;6.63;79.76
10462;BME280;5278;42.656;23.374;2022-12-18T09:37:02;95907.94;;;6.74;79.04
10462;BME280;5278;42.656;23.374;2022-12-18T09:39:29;95902.75;;;6.85;78.85
10462;BME280;5278;42.656;23.374;2022-12-18T09:41:57;95906.28;;;6.84;78.14
10462;BME280;5278;42.656;23.374;2022-12-18T09:44:28;95910.59;;;6.95;77.03
10462;BME280;5278;42.656;23.374;2022-12-18T09:47:09;95910.88;;;6.92;75.89
10462;BME280;5278;42.656;23.374;2022-12-18T09:49:40;95909.69;;;6.74;76.52
10462;BME280;5278;42.656;23.374;2022-12-18T09:52:12;95878.59;;;6.53;76.82
10462;BME280;5278;42.656;23.374;2022-12-18T09:54:45;95904.41;;;6.86;76.73
10462;BME280;5278;42.656;23.374;2022-12-18T09:57:15;95866.16;;;6.69;75.93
10462;BME280;5278;42.656;23.374;2022-12-18T09:59:48;95806.31;;;6.53;75.33
10462;BME280;5278;42.656;23.374;2022-12-18T10:02:18;95912.09;;;7.20;74.66
10462;BME280;5278;42.656;23.374;2022-12-18T10:04:55;95909.59;;;7.18;74.81
10462;BME280;5278;42.656;23.374;2022-12-18T10:07:28;95895.19;;;7.16;73.54
10462;BME280;5278;42.656;23.374;2022-12-18T10:10:02;95904.72;;;7.04;73.29
10462;BME280;5278;42.656;23.374;2022-12-18T10:12:37;95903.69;;;6.84;73.84
10462;BME280;5278;42.656;23.374;2022-12-18T10:15:14;95898.53;;;6.84;73.78
10462;BME280;5278;42.656;23.374;2022-12-18T10:17:48;95912.16;;;6.86;74.16
10462;BME280;5278;42.656;23.374;2022-12-18T10:20:21;95909.06;;;7.04;74.25
10462;BME280;5278;42.656;23.374;2022-12-18T10:22:57;95902.19;;;7.25;73.97
10462;BME280;5278;42.656;23.374;2022-12-18T10:25:31;95901.72;;;7.31;73.05
10462;BME280;5278;42.656;23.374;2022-12-18T10:28:10;95901.63;;;7.21;72.11
10462;BME280;5278;42.656;23.374;2022-12-18T10:30:40;95901.00;;;7.29;72.09
10462;BME280;5278;42.656;23.374;2022-12-18T10:33:11;95907.28;;;7.15;71.90
10462;BME280;5278;42.656;23.374;2022-12-18T10:35:41;95902.69;;;7.19;72.05
10462;BME280;5278;42.656;23.374;2022-12-18T10:38:21;95894.16;;;7.07;72.09
10462;BME280;5278;42.656;23.374;2022-12-18T10:40:51;95898.25;;;6.99;73.08
10462;BME280;5278;42.656;23.374;2022-12-18T10:43:23;95907.66;;;7.11;73.69
10462;BME280;5278;42.656;23.374;2022-12-18T10:46:02;95899.44;;;7.38;73.40
10462;BME280;5278;42.656;23.374;2022-12-18T10:48:33;95889.16;;;7.47;72.32
10462;BME280;5278;42.656;23.374;2022-12-18T10:51:02;95890.34;;;7.54;72.05
10462;BME280;5278;42.656;23.374;2022-12-18T10:53:33;95902.31;;;7.55;72.23
10462;BME280;5278;42.656;23.374;2022-12-18T10:56:03;95902.69;;;7.51;72.91
10462;BME280;5278;42.656;23.374;2022-12-18T10:58:32;95898.66;;;7.58;72.80
10462;BME280;5278;42.656;23.374;2022-12-18T11:01:07;95887.94;;;7.62;72.99
10462;BME280;5278;42.656;23.374;2022-12-18T11:03:37;95894.56;;;7.55;71.78
10462;BME280;5278;42.656;23.374;2022-12-18T11:06:07;95907.94;;;7.60;72.58
10462;BME280;5278;42.656;23.374;2022-12-18T11:08:35;95895.78;;;7.72;71.93
10462;BME280;5278;42.656;23.374;2022-12-18T11:11:04;95895.66;;;7.73;71.34
10462;BME280;5278;42.656;23.374;2022-12-18T11:13:33;95895.69;;;7.62;71.51
10462;BME280;5278;42.656;23.374;2022-12-18T11:16:01;95897.41;;;7.73;71.21
10462;BME280;5278;42.656;23.374;2022-12-18T11:18:31;95899.00;;;7.85;71.04
10462;BME280;5278;42.656;23.374;2022-12-18T11:21:07;95890.69;;;7.82;69.79
10462;BME280;5278;42.656;23.374;2022-12-18T11:23:36;95905.31;;;7.71;67.75
10462;BME280;5278;42.656;23.374;2022-12-18T11:26:05;95897.56;;;7.71;67.63
10462;BME280;5278;42.656;23.374;2022-12-18T11:28:38;95899.44;;;7.69;67.44
10462;BME280;5278;42.656;23.374;2022-12-18T11:31:16;95905.25;;;7.62;67.89
10462;BME280;5278;42.656;23.374;2022-12-18T11:33:49;95896.66;;;7.61;68.84
10462;BME280;5278;42.656;23.374;2022-12-18T11:36:19;95903.91;;;7.67;68.75
10462;BME280;5278;42.656;23.374;2022-12-18T11:38:49;95906.13;;;7.72;68.46
10462;BME280;5278;42.656;23.374;2022-12-18T11:41:23;95902.47;;;7.74;68.09
10462;BME280;5278;42.656;23.374;2022-12-18T11:44:15;95905.75;;;7.76;68.69
10462;BME280;5278;42.656;23.374;2022-12-18T11:46:47;95905.63;;;7.78;67.90
10462;BME280;5278;42.656;23.374;2022-12-18T11:49:21;95901.75;;;7.72;67.88
10462;BME280;5278;42.656;23.374;2022-12-18T11:51:54;95906.59;;;7.77;67.59
10462;BME280;5278;42.656;23.374;2022-12-18T11:54:23;95797.72;;;7.07;68.13
10462;BME280;5278;42.656;23.374;2022-12-18T11:56:54;95900.63;;;7.65;69.49
10462;BME280;5278;42.656;23.374;2022-12-18T11:59:31;95905.06;;;7.74;68.62
10462;BME280;5278;42.656;23.374;2022-12-18T12:02:11;95902.25;;;7.87;68.25
10462;BME280;5278;42.656;23.374;2022-12-18T12:04:50;95892.75;;;7.88;67.11
10462;BME280;5278;42.656;23.374;2022-12-18T12:07:34;95896.75;;;7.92;66.59
10462;BME280;5278;42.656;23.374;2022-12-18T12:10:13;95902.72;;;7.92;66.77
10462;BME280;5278;42.656;23.374;2022-12-18T12:12:59;95902.97;;;7.89;66.99
10462;BME280;5278;42.656;23.374;2022-12-18T12:15:38;95906.25;;;7.91;67.12
10462;BME280;5278;42.656;23.374;2022-12-18T12:18:19;95906.00;;;7.94;67.01
10462;BME280;5278;42.656;23.374;2022-12-18T12:21:00;95904.25;;;7.95;67.24
10462;BME280;5278;42.656;23.374;2022-12-18T12:23:37;95910.47;;;7.92;67.27
10462;BME280;5278;42.656;23.374;2022-12-18T12:26:10;95909.22;;;7.87;67.69
10462;BME280;5278;42.656;23.374;2022-12-18T12:28:55;95905.69;;;7.88;68.07
10462;BME280;5278;42.656;23.374;2022-12-18T12:31:37;95908.25;;;7.88;68.08
10462;BME280;5278;42.656;23.374;2022-12-18T12:34:16;95907.31;;;7.89;67.55
10462;BME280;5278;42.656;23.374;2022-12-18T12:36:54;95914.63;;;7.84;68.16
10462;BME280;5278;42.656;23.374;2022-12-18T12:39:26;95913.44;;;7.88;67.84
10462;BME280;5278;42.656;23.374;2022-12-18T12:41:56;95913.59;;;7.86;67.38
10462;BME280;5278;42.656;23.374;2022-12-18T12:44:44;95806.94;;;7.20;67.77
10462;BME280;5278;42.656;23.374;2022-12-18T12:47:16;95906.19;;;7.82;68.17
10462;BME280;5278;42.656;23.374;2022-12-18T12:49:46;95906.69;;;7.75;68.01
10462;BME280;5278;42.656;23.374;2022-12-18T12:52:20;95915.84;;;7.79;68.55
10462;BME280;5278;42.656;23.374;2022-12-18T12:54:51;95924.59;;;7.67;68.89
10462;BME280;5278;42.656;23.374;2022-12-18T12:57:22;95922.75;;;7.58;69.58
10462;BME280;5278;42.656;23.374;2022-12-18T12:59:59;95918.88;;;7.53;70.28
10462;BME280;5278;42.656;23.374;2022-12-18T13:02:33;95928.19;;;7.55;69.82
10462;BME280;5278;42.656;23.374;2022-12-18T13:05:09;95937.31;;;7.59;70.63
10462;BME280;5278;42.656;23.374;2022-12-18T13:07:51;95934.47;;;7.62;70.67
10462;BME280;5278;42.656;23.374;2022-12-18T13:10:26;95935.19;;;7.64;70.44
10462;BME280;5278;42.656;23.374;2022-12-18T13:13:03;95927.53;;;7.63;70.32
10462;BME280;5278;42.656;23.374;2022-12-18T13:15:33;95940.25;;;7.66;70.50
10462;BME280;5278;42.656;23.374;2022-12-18T13:18:19;95926.75;;;7.30;70.69
10462;BME280;5278;42.656;23.374;2022-12-18T13:20:50;95936.41;;;7.49;70.78
10462;BME280;5278;42.656;23.374;2022-12-18T13:23:29;95944.19;;;7.49;70.50
10462;BME280;5278;42.656;23.374;2022-12-18T13:25:58;95942.63;;;7.58;69.77
10462;BME280;5278;42.656;23.374;2022-12-18T13:28:50;95953.94;;;7.57;69.75